createdAt,value
2019-05-22T00:00:15.717Z,13.70
2019-05-22T00:02:42.145Z,13.70
2019-05-22T00:05:14.291Z,13.70
2019-05-22T00:07:42.893Z,13.70
2019-05-22T00:10:13.830Z,13.60
2019-05-22T00:12:46.527Z,13.60
2019-05-22T00:15:13.067Z,13.60
2019-05-22T00:17:39.939Z,13.60
2019-05-22T00:20:08.702Z,13.60
2019-05-22T00:22:36.655Z,13.50
2019-05-22T00:25:04.493Z,13.50
2019-05-22T00:27:31.657Z,13.50
2019-05-22T00:29:59.150Z,13.50
2019-05-22T00:32:26.468Z,13.50
2019-05-22T00:34:54.854Z,13.50
2019-05-22T00:37:21.529Z,13.60
2019-05-22T00:39:48.241Z,13.60
2019-05-22T00:42:15.176Z,13.60
2019-05-22T00:44:43.718Z,13.60
2019-05-22T00:47:12.152Z,13.60
2019-05-22T00:49:39.738Z,13.60
2019-05-22T00:52:19.824Z,13.60
2019-05-22T00:54:51.234Z,13.50
2019-05-22T00:57:19.335Z,13.50
2019-05-22T00:59:47.421Z,13.50
2019-05-22T01:02:18.073Z,13.50
2019-05-22T01:04:46.417Z,13.60
2019-05-22T01:07:16.374Z,13.50
2019-05-22T01:09:43.669Z,13.50
2019-05-22T01:12:16.056Z,13.50
2019-05-22T01:14:44.136Z,13.50
2019-05-22T01:17:10.553Z,13.40
2019-05-22T01:19:38.788Z,13.40
2019-05-22T01:22:06.227Z,13.40
2019-05-22T01:24:33.182Z,13.50
2019-05-22T01:26:59.899Z,13.40
2019-05-22T01:29:28.090Z,13.40
2019-05-22T01:31:59.450Z,13.40
2019-05-22T01:34:27.502Z,13.40
2019-05-22T01:36:55.579Z,13.30
2019-05-22T01:39:27.480Z,13.30
2019-05-22T01:41:56.370Z,13.30
2019-05-22T01:44:24.571Z,13.30
2019-05-22T01:46:53.114Z,13.40
2019-05-22T01:49:19.950Z,13.40
2019-05-22T01:51:46.136Z,13.30
2019-05-22T01:54:14.135Z,13.30
2019-05-22T01:56:41.182Z,13.30
2019-05-22T01:59:08.559Z,13.30
2019-05-22T02:01:35.549Z,13.30
2019-05-22T02:04:01.765Z,13.30
2019-05-22T02:06:29.372Z,13.30
2019-05-22T02:09:02.529Z,13.30
2019-05-22T02:11:29.760Z,13.20
2019-05-22T02:14:11.705Z,13.20
2019-05-22T02:16:55.498Z,13.20
2019-05-22T02:19:11.119Z,13.20
2019-05-22T02:21:37.411Z,13.20
2019-05-22T02:24:04.376Z,13.20
2019-05-22T02:26:31.462Z,13.20
2019-05-22T02:29:00.017Z,13.10
2019-05-22T02:31:29.038Z,13.10
2019-05-22T02:33:59.401Z,13.10
2019-05-22T02:36:26.840Z,13.10
2019-05-22T02:38:56.642Z,13.10
2019-05-22T02:41:25.374Z,13.10
2019-05-22T02:43:52.056Z,13.10
2019-05-22T02:46:18.578Z,13.10
2019-05-22T02:48:46.239Z,13.10
2019-05-22T02:51:14.185Z,13.10
2019-05-22T02:53:41.362Z,13.10
2019-05-22T02:56:07.925Z,13.10
2019-05-22T02:58:34.275Z,13.00
2019-05-22T03:01:02.125Z,13.00
2019-05-22T03:03:31.385Z,13.00
2019-05-22T03:05:59.216Z,12.90
2019-05-22T03:08:51.946Z,12.90
2019-05-22T03:11:20.076Z,12.90
2019-05-22T03:13:59.733Z,12.90
2019-05-22T03:16:29.858Z,12.80
2019-05-22T03:19:08.373Z,12.80
2019-05-22T03:21:25.725Z,12.80
2019-05-22T03:23:52.804Z,12.80
2019-05-22T03:26:23.901Z,12.80
2019-05-22T03:28:50.613Z,12.80
2019-05-22T03:31:17.756Z,12.80
2019-05-22T03:33:44.694Z,12.80
2019-05-22T03:36:13.002Z,12.80
2019-05-22T03:38:40.146Z,12.80
2019-05-22T03:41:08.623Z,12.80
2019-05-22T03:43:35.461Z,12.80
2019-05-22T03:46:06.001Z,12.80
2019-05-22T03:48:34.751Z,12.80
2019-05-22T03:51:09.523Z,12.80
2019-05-22T03:53:36.339Z,12.80
2019-05-22T03:56:03.227Z,12.70
2019-05-22T03:58:30.305Z,12.60
2019-05-22T04:01:00.674Z,12.50
2019-05-22T04:03:27.056Z,12.50
2019-05-22T04:05:54.075Z,12.50
2019-05-22T04:08:23.424Z,12.50
2019-05-22T04:11:02.898Z,12.40
2019-05-22T04:13:30.250Z,12.30
2019-05-22T04:15:57.088Z,12.20
2019-05-22T04:18:25.780Z,12.30
2019-05-22T04:20:53.411Z,12.30
2019-05-22T04:23:20.500Z,12.20
2019-05-22T04:25:47.200Z,12.20
2019-05-22T04:28:14.181Z,12.20
2019-05-22T04:30:41.248Z,12.20
2019-05-22T04:33:08.165Z,12.20
2019-05-22T04:35:36.999Z,12.20
2019-05-22T04:38:05.479Z,12.20
2019-05-22T04:40:42.119Z,12.20
2019-05-22T04:43:10.062Z,12.20
2019-05-22T04:45:37.176Z,12.10
2019-05-22T04:48:04.694Z,12.10
2019-05-22T04:50:32.514Z,12.20
2019-05-22T04:52:59.955Z,12.20
2019-05-22T04:55:28.296Z,12.30
2019-05-22T04:57:56.759Z,12.30
2019-05-22T05:00:23.542Z,12.30
2019-05-22T05:02:51.101Z,12.30
2019-05-22T05:05:18.080Z,12.30
2019-05-22T05:07:46.384Z,12.30
2019-05-22T05:10:12.820Z,12.30
2019-05-22T05:12:41.358Z,12.30
2019-05-22T05:15:08.582Z,12.30
2019-05-22T05:17:35.244Z,12.30
2019-05-22T05:20:04.738Z,12.30
2019-05-22T05:22:43.709Z,12.30
2019-05-22T05:25:12.103Z,12.30
2019-05-22T05:27:38.602Z,12.30
2019-05-22T05:30:09.290Z,12.30
2019-05-22T05:32:36.632Z,12.30
2019-05-22T05:35:06.601Z,12.30
2019-05-22T05:37:34.104Z,12.40
2019-05-22T05:40:06.104Z,12.40
2019-05-22T05:42:32.900Z,12.40
2019-05-22T05:45:00.031Z,12.50
2019-05-22T05:47:26.561Z,12.50
2019-05-22T05:49:54.228Z,12.60
2019-05-22T05:52:20.457Z,12.60
2019-05-22T05:54:47.533Z,12.70
2019-05-22T05:57:36.959Z,12.70
2019-05-22T06:00:27.235Z,12.70
2019-05-22T06:03:00.546Z,12.70
2019-05-22T06:05:28.671Z,12.70
2019-05-22T06:07:55.096Z,12.70
2019-05-22T06:10:28.775Z,12.70
2019-05-22T06:12:56.633Z,12.80
2019-05-22T06:15:46.992Z,12.80
2019-05-22T06:18:31.200Z,12.80
2019-05-22T06:21:03.985Z,12.80
2019-05-22T06:23:31.960Z,12.70
2019-05-22T06:25:58.884Z,12.80
2019-05-22T06:28:29.170Z,12.80
2019-05-22T06:30:57.940Z,12.80
2019-05-22T06:33:30.370Z,12.80
2019-05-22T06:35:57.685Z,12.80
2019-05-22T06:38:34.371Z,12.80
2019-05-22T06:41:01.422Z,12.90
2019-05-22T06:43:32.169Z,12.80
2019-05-22T06:45:58.473Z,12.80
2019-05-22T06:48:24.836Z,12.80
2019-05-22T06:50:51.655Z,12.80
2019-05-22T06:53:18.815Z,12.80
2019-05-22T06:55:45.346Z,12.80
2019-05-22T06:58:12.365Z,12.80
2019-05-22T07:00:38.778Z,12.80
2019-05-22T07:03:05.357Z,12.80
2019-05-22T07:05:32.362Z,12.80
2019-05-22T07:07:59.591Z,12.80
2019-05-22T07:10:26.421Z,12.80
2019-05-22T07:12:53.970Z,12.80
2019-05-22T07:15:21.153Z,12.80
2019-05-22T07:17:48.741Z,12.80
2019-05-22T07:20:15.941Z,12.80
2019-05-22T07:22:42.657Z,12.90
2019-05-22T07:25:11.242Z,13.00
2019-05-22T07:27:38.327Z,13.00
2019-05-22T07:30:07.225Z,13.10
2019-05-22T07:32:34.006Z,13.10
2019-05-22T07:35:00.764Z,13.20
2019-05-22T07:37:28.263Z,13.20
2019-05-22T07:39:54.714Z,13.20
2019-05-22T07:42:21.429Z,13.20
2019-05-22T07:44:48.153Z,13.10
2019-05-22T07:47:18.660Z,13.10
2019-05-22T07:49:45.515Z,13.10
2019-05-22T07:52:12.268Z,13.10
2019-05-22T07:55:00.425Z,13.10
2019-05-22T07:57:29.382Z,13.20
2019-05-22T07:59:55.839Z,13.20
2019-05-22T08:02:25.889Z,13.20
2019-05-22T08:04:52.323Z,13.20
2019-05-22T08:07:21.309Z,13.20
2019-05-22T08:09:48.807Z,13.20
2019-05-22T08:12:15.908Z,13.30
2019-05-22T08:14:42.853Z,13.30
2019-05-22T08:17:10.839Z,13.40
2019-05-22T08:19:37.155Z,13.40
2019-05-22T08:22:07.330Z,13.40
2019-05-22T08:24:32.863Z,13.40
2019-05-22T08:26:59.314Z,13.40
2019-05-22T08:29:26.215Z,13.40
2019-05-22T08:31:52.787Z,13.50
2019-05-22T08:34:19.325Z,13.50
2019-05-22T08:36:47.955Z,13.50
2019-05-22T08:39:14.398Z,13.50
2019-05-22T08:41:41.562Z,13.50
2019-05-22T08:44:17.453Z,13.50
2019-05-22T08:46:37.436Z,13.50
2019-05-22T08:49:04.288Z,13.60
2019-05-22T08:51:30.665Z,13.60
2019-05-22T08:53:57.708Z,13.70
2019-05-22T08:56:25.017Z,13.70
2019-05-22T08:58:53.502Z,13.70
2019-05-22T09:01:20.256Z,13.80
2019-05-22T09:03:46.726Z,13.80
2019-05-22T09:06:13.054Z,13.80
2019-05-22T09:08:40.212Z,13.80
2019-05-22T09:11:07.425Z,13.80
2019-05-22T09:13:34.030Z,13.90
2019-05-22T09:16:01.966Z,14.00
2019-05-22T09:18:29.822Z,14.10
2019-05-22T09:20:57.161Z,14.20
2019-05-22T09:23:23.808Z,14.30
2019-05-22T09:25:50.721Z,14.50
2019-05-22T09:28:17.485Z,14.60
2019-05-22T09:30:44.175Z,14.80
2019-05-22T09:33:11.852Z,14.90
2019-05-22T09:35:38.470Z,15.00
2019-05-22T09:38:05.021Z,15.00
2019-05-22T09:40:32.268Z,15.20
2019-05-22T09:42:59.690Z,15.30
2019-05-22T09:45:26.325Z,15.40
2019-05-22T09:47:53.104Z,15.50
2019-05-22T09:50:22.480Z,15.50
2019-05-22T09:52:57.710Z,15.60
2019-05-22T09:55:18.394Z,15.60
2019-05-22T09:57:45.128Z,15.70
2019-05-22T10:00:12.409Z,15.80
2019-05-22T10:02:39.747Z,15.90
2019-05-22T10:05:07.108Z,16.00
2019-05-22T10:07:34.252Z,16.00
2019-05-22T10:10:00.801Z,16.00
2019-05-22T10:12:27.643Z,16.10
2019-05-22T10:14:54.048Z,16.20
2019-05-22T10:17:20.681Z,16.30
2019-05-22T10:19:47.146Z,16.40
2019-05-22T10:22:14.384Z,16.60
2019-05-22T10:24:40.604Z,16.60
2019-05-22T10:27:08.305Z,16.50
2019-05-22T10:29:35.542Z,16.50
2019-05-22T10:32:02.614Z,16.70
2019-05-22T10:34:28.792Z,16.80
2019-05-22T10:36:55.621Z,16.90
2019-05-22T10:39:24.706Z,16.80
2019-05-22T10:41:50.573Z,16.80
2019-05-22T10:44:16.868Z,16.80
2019-05-22T10:46:43.558Z,17.00
2019-05-22T10:49:10.216Z,17.10
2019-05-22T10:51:36.563Z,17.00
2019-05-22T10:54:03.553Z,17.00
2019-05-22T10:56:30.478Z,17.10
2019-05-22T10:58:56.977Z,17.10
2019-05-22T11:01:23.357Z,17.10
2019-05-22T11:03:49.917Z,17.10
2019-05-22T11:06:16.660Z,17.20
2019-05-22T11:08:43.151Z,17.50
2019-05-22T11:11:09.722Z,17.80
2019-05-22T11:13:37.177Z,17.90
2019-05-22T11:16:03.590Z,18.10
2019-05-22T11:18:30.059Z,18.20
2019-05-22T11:20:56.572Z,18.30
2019-05-22T11:23:23.302Z,18.40
2019-05-22T11:25:49.625Z,18.40
2019-05-22T11:28:15.903Z,18.50
2019-05-22T11:30:42.655Z,18.80
2019-05-22T11:33:09.742Z,19.20
2019-05-22T11:35:36.658Z,19.50
2019-05-22T11:38:03.240Z,19.90
2019-05-22T11:40:30.282Z,20.30
2019-05-22T11:42:57.399Z,20.90
2019-05-22T11:45:24.398Z,22.00
2019-05-22T11:47:51.320Z,23.40
2019-05-22T11:50:18.368Z,25.30
2019-05-22T11:52:45.459Z,27.10
2019-05-22T11:55:12.939Z,27.90
2019-05-22T11:57:41.133Z,28.40
2019-05-22T12:00:09.396Z,29.20
2019-05-22T12:02:38.172Z,30.40
2019-05-22T12:05:06.226Z,31.50
2019-05-22T12:07:32.993Z,32.00
2019-05-22T12:09:59.785Z,31.70
2019-05-22T12:12:26.818Z,31.20
2019-05-22T12:14:53.402Z,30.50
2019-05-22T12:17:36.883Z,29.00
2019-05-22T12:19:49.107Z,27.80
2019-05-22T12:22:19.497Z,27.20
2019-05-22T12:24:44.839Z,26.50
2019-05-22T12:27:11.634Z,25.60
2019-05-22T12:29:38.335Z,25.50
2019-05-22T12:32:06.367Z,25.30
2019-05-22T12:34:32.860Z,24.90
2019-05-22T12:36:59.315Z,24.80
2019-05-22T12:39:26.628Z,25.20
2019-05-22T12:41:53.520Z,25.00
2019-05-22T12:44:19.772Z,24.80
2019-05-22T12:46:46.303Z,24.40
2019-05-22T12:49:13.160Z,24.10
2019-05-22T12:51:40.211Z,24.60
2019-05-22T12:54:07.319Z,25.50
2019-05-22T12:56:33.913Z,25.90
2019-05-22T12:59:01.104Z,26.30
2019-05-22T13:01:27.816Z,27.30
2019-05-22T13:03:55.237Z,27.70
2019-05-22T13:06:22.088Z,27.70
2019-05-22T13:08:48.699Z,28.30
2019-05-22T13:11:15.184Z,29.00
2019-05-22T13:13:41.722Z,29.80
2019-05-22T13:16:08.945Z,30.60
2019-05-22T13:18:35.596Z,31.00
2019-05-22T13:21:02.478Z,31.00
2019-05-22T13:23:35.074Z,30.30
2019-05-22T13:26:02.581Z,28.80
2019-05-22T13:28:31.662Z,27.40
2019-05-22T13:30:58.638Z,26.20
2019-05-22T13:33:27.055Z,25.30
2019-05-22T13:35:55.601Z,24.40
2019-05-22T13:38:22.413Z,23.90
2019-05-22T13:40:49.784Z,24.80
2019-05-22T13:43:17.745Z,26.20
2019-05-22T13:45:44.515Z,27.70
2019-05-22T13:48:11.150Z,28.80
2019-05-22T13:50:38.058Z,29.10
2019-05-22T13:53:05.738Z,28.20
2019-05-22T13:55:33.741Z,26.90
2019-05-22T13:58:00.457Z,26.10
2019-05-22T14:00:27.393Z,25.80
2019-05-22T14:02:54.419Z,25.00
2019-05-22T14:05:22.362Z,24.40
2019-05-22T14:07:49.306Z,24.30
2019-05-22T14:10:16.335Z,23.90
2019-05-22T14:12:43.043Z,23.80
2019-05-22T14:15:10.168Z,24.20
2019-05-22T14:17:36.623Z,24.40
2019-05-22T14:20:05.136Z,24.50
2019-05-22T14:22:32.544Z,24.40
2019-05-22T14:24:59.427Z,24.10
2019-05-22T14:27:26.440Z,23.60
2019-05-22T14:29:53.008Z,23.30
2019-05-22T14:32:19.808Z,22.90
2019-05-22T14:34:46.371Z,22.70
2019-05-22T14:37:13.032Z,22.50
2019-05-22T14:39:39.592Z,22.30
2019-05-22T14:42:07.041Z,22.10
2019-05-22T14:44:34.448Z,22.10
2019-05-22T14:47:13.149Z,21.90
2019-05-22T14:49:29.325Z,21.70
2019-05-22T14:51:55.898Z,21.50
2019-05-22T14:54:23.024Z,21.30
2019-05-22T14:56:49.671Z,21.20
2019-05-22T14:59:16.594Z,21.10
2019-05-22T15:01:43.533Z,20.90
2019-05-22T15:04:11.030Z,20.90
2019-05-22T15:06:37.510Z,20.80
2019-05-22T15:09:05.868Z,20.80
2019-05-22T15:11:32.275Z,20.70
2019-05-22T15:13:58.735Z,20.70
2019-05-22T15:16:25.298Z,20.70
2019-05-22T15:18:52.296Z,20.60
2019-05-22T15:21:19.006Z,20.40
2019-05-22T15:23:47.393Z,20.30
2019-05-22T15:26:14.120Z,20.30
2019-05-22T15:28:40.842Z,20.20
2019-05-22T15:31:06.996Z,20.20
2019-05-22T15:33:34.194Z,20.10
2019-05-22T15:36:01.926Z,20.10
2019-05-22T15:38:30.378Z,20.00
2019-05-22T15:40:56.770Z,20.00
2019-05-22T15:43:24.799Z,20.00
2019-05-22T15:45:52.103Z,20.00
2019-05-22T15:48:26.625Z,20.10
2019-05-22T15:50:53.803Z,20.10
2019-05-22T15:53:20.116Z,20.10
2019-05-22T15:55:47.823Z,20.10
2019-05-22T15:58:16.460Z,20.00
2019-05-22T16:00:43.927Z,20.00
2019-05-22T16:03:17.781Z,19.90
2019-05-22T16:05:44.948Z,19.90
2019-05-22T16:08:12.698Z,19.90
2019-05-22T16:10:40.232Z,19.80
2019-05-22T16:13:09.457Z,19.80
2019-05-22T16:15:37.979Z,19.80
2019-05-22T16:18:11.826Z,19.80
2019-05-22T16:20:35.336Z,19.80
2019-05-22T16:23:02.230Z,19.60
2019-05-22T16:25:28.892Z,19.60
2019-05-22T16:27:55.728Z,19.60
2019-05-22T16:30:22.622Z,19.70
2019-05-22T16:32:49.099Z,19.70
2019-05-22T16:35:16.260Z,19.80
2019-05-22T16:37:43.044Z,19.80
2019-05-22T16:40:10.483Z,19.80
2019-05-22T16:42:38.753Z,19.80
2019-05-22T16:45:06.293Z,19.80
2019-05-22T16:47:33.569Z,19.80
2019-05-22T16:50:00.840Z,19.80
2019-05-22T16:52:28.355Z,19.80
2019-05-22T16:54:54.756Z,19.80
2019-05-22T16:57:22.555Z,19.80
2019-05-22T16:59:49.034Z,19.80
2019-05-22T17:02:16.250Z,19.90
2019-05-22T17:04:42.669Z,19.90
2019-05-22T17:07:10.300Z,19.80
2019-05-22T17:09:38.236Z,19.80
2019-05-22T17:12:06.013Z,19.80
2019-05-22T17:14:34.229Z,19.80
2019-05-22T17:17:01.421Z,19.80
2019-05-22T17:19:28.155Z,19.80
2019-05-22T17:21:54.939Z,19.80
2019-05-22T17:24:21.904Z,19.80
2019-05-22T17:26:50.338Z,19.80
2019-05-22T17:29:16.555Z,19.80
2019-05-22T17:31:42.871Z,19.80
2019-05-22T17:34:28.603Z,19.80
2019-05-22T17:36:54.975Z,19.80
2019-05-22T17:39:22.020Z,19.80
2019-05-22T17:41:48.263Z,19.70
2019-05-22T17:44:15.948Z,19.60
2019-05-22T17:46:43.068Z,19.60
2019-05-22T17:49:10.164Z,19.50
2019-05-22T17:51:36.588Z,19.40
2019-05-22T17:54:03.019Z,19.30
2019-05-22T17:56:29.919Z,19.20
2019-05-22T17:58:56.699Z,19.10
2019-05-22T18:01:23.796Z,19.10
2019-05-22T18:03:50.732Z,19.10
2019-05-22T18:06:17.206Z,19.00
2019-05-22T18:08:43.735Z,18.90
2019-05-22T18:11:10.343Z,18.80
2019-05-22T18:13:43.443Z,18.70
2019-05-22T18:16:10.481Z,18.60
2019-05-22T18:18:37.162Z,18.60
2019-05-22T18:21:04.230Z,18.50
2019-05-22T18:23:30.642Z,18.40
2019-05-22T18:25:57.004Z,18.30
2019-05-22T18:28:23.621Z,18.30
2019-05-22T18:30:50.229Z,18.20
2019-05-22T18:33:16.734Z,18.10
2019-05-22T18:35:43.237Z,18.00
2019-05-22T18:38:10.078Z,17.90
2019-05-22T18:40:36.573Z,17.80
2019-05-22T18:43:03.172Z,17.70
2019-05-22T18:45:30.781Z,17.70
2019-05-22T18:47:57.464Z,17.50
2019-05-22T18:50:24.620Z,17.50
2019-05-22T18:52:51.214Z,17.40
2019-05-22T18:55:18.897Z,17.40
2019-05-22T18:57:46.460Z,17.30
2019-05-22T19:00:15.754Z,17.20
2019-05-22T19:02:42.378Z,17.20
2019-05-22T19:05:09.213Z,17.20
2019-05-22T19:07:35.851Z,17.10
2019-05-22T19:10:04.704Z,17.00
2019-05-22T19:12:31.122Z,16.90
2019-05-22T19:14:57.895Z,16.90
2019-05-22T19:17:24.396Z,16.80
2019-05-22T19:19:50.655Z,16.80
2019-05-22T19:22:17.744Z,16.70
2019-05-22T19:24:44.170Z,16.70
2019-05-22T19:27:10.625Z,16.60
2019-05-22T19:29:36.956Z,16.50
2019-05-22T19:32:04.199Z,16.50
2019-05-22T19:34:30.937Z,16.40
2019-05-22T19:36:57.576Z,16.30
2019-05-22T19:39:24.624Z,16.20
2019-05-22T19:42:02.069Z,16.20
2019-05-22T19:44:19.676Z,16.10
2019-05-22T19:46:46.278Z,16.00
2019-05-22T19:49:12.919Z,15.90
2019-05-22T19:51:39.939Z,15.90
2019-05-22T19:54:07.017Z,15.80
2019-05-22T19:56:33.613Z,15.70
2019-05-22T19:58:59.932Z,15.60
2019-05-22T20:01:27.458Z,15.60
2019-05-22T20:03:53.822Z,15.50
2019-05-22T20:06:20.492Z,15.40
2019-05-22T20:08:46.757Z,15.30
2019-05-22T20:11:13.022Z,15.20
2019-05-22T20:13:39.821Z,15.20
2019-05-22T20:16:07.844Z,15.10
2019-05-22T20:18:34.641Z,15.00
2019-05-22T20:21:00.879Z,14.90
2019-05-22T20:23:35.878Z,14.80
2019-05-22T20:25:55.357Z,14.70
2019-05-22T20:28:22.065Z,14.60
2019-05-22T20:30:48.457Z,14.50
2019-05-22T20:33:15.745Z,14.50
2019-05-22T20:35:42.109Z,14.40
2019-05-22T20:38:08.778Z,14.40
2019-05-22T20:40:35.866Z,14.30
2019-05-22T20:43:04.887Z,14.20
2019-05-22T20:45:31.572Z,14.10
2019-05-22T20:48:14.360Z,14.10
2019-05-22T20:50:42.518Z,14.00
2019-05-22T20:53:10.420Z,13.90
2019-05-22T20:55:38.683Z,13.90
2019-05-22T20:58:05.545Z,13.80
2019-05-22T21:00:33.581Z,13.70
2019-05-22T21:03:01.841Z,13.70
2019-05-22T21:05:28.133Z,13.60
2019-05-22T21:07:58.128Z,13.60
2019-05-22T21:10:25.187Z,13.50
2019-05-22T21:12:52.730Z,13.50
2019-05-22T21:15:20.106Z,13.40
2019-05-22T21:17:46.952Z,13.40
2019-05-22T21:20:18.393Z,13.30
2019-05-22T21:22:45.243Z,13.30
2019-05-22T21:25:12.878Z,13.20
2019-05-22T21:27:41.855Z,13.20
2019-05-22T21:30:10.430Z,13.10
2019-05-22T21:32:37.620Z,13.10
2019-05-22T21:35:06.205Z,13.10
2019-05-22T21:37:32.547Z,13.00
2019-05-22T21:39:59.208Z,12.90
2019-05-22T21:42:26.026Z,12.90
2019-05-22T21:44:52.484Z,12.90
2019-05-22T21:47:19.554Z,12.90
2019-05-22T21:49:46.053Z,12.80
2019-05-22T21:52:12.337Z,12.80
2019-05-22T21:54:38.714Z,12.70
2019-05-22T21:57:05.397Z,12.70
2019-05-22T21:59:32.144Z,12.70
2019-05-22T22:02:03.179Z,12.60
2019-05-22T22:04:31.428Z,12.60
2019-05-22T22:06:59.051Z,12.50
2019-05-22T22:09:26.567Z,12.50
2019-05-22T22:11:53.545Z,12.50
2019-05-22T22:14:22.134Z,12.50
2019-05-22T22:16:49.105Z,12.50
2019-05-22T22:19:16.789Z,12.40
2019-05-22T22:21:43.983Z,12.40
2019-05-22T22:24:11.093Z,12.30
2019-05-22T22:26:37.358Z,12.30
2019-05-22T22:29:04.052Z,12.30
2019-05-22T22:31:32.502Z,12.20
2019-05-22T22:34:06.477Z,12.20
2019-05-22T22:36:33.134Z,12.20
2019-05-22T22:38:59.475Z,12.10
2019-05-22T22:41:25.917Z,12.10
2019-05-22T22:43:54.381Z,12.00
2019-05-22T22:46:28.326Z,11.90
2019-05-22T22:48:57.184Z,11.90
2019-05-22T22:51:25.987Z,11.90
2019-05-22T22:53:55.147Z,11.80
2019-05-22T22:56:22.609Z,11.80
2019-05-22T22:58:48.788Z,11.70
2019-05-22T23:01:26.105Z,11.70
2019-05-22T23:03:56.270Z,11.70
2019-05-22T23:06:22.950Z,11.60
2019-05-22T23:08:49.538Z,11.50
2019-05-22T23:11:16.455Z,11.50
2019-05-22T23:13:44.412Z,11.50
2019-05-22T23:16:10.970Z,11.40
2019-05-22T23:18:42.457Z,11.40
2019-05-22T23:21:09.171Z,11.30
2019-05-22T23:23:36.022Z,11.30
2019-05-22T23:26:03.675Z,11.30
2019-05-22T23:28:34.626Z,11.20
2019-05-22T23:31:01.097Z,11.10
2019-05-22T23:33:28.956Z,11.10
2019-05-22T23:35:55.244Z,11.00
2019-05-22T23:38:21.873Z,11.00
2019-05-22T23:40:48.112Z,11.00
2019-05-22T23:43:14.671Z,10.90
2019-05-22T23:45:41.223Z,10.90
2019-05-22T23:48:10.865Z,10.90
2019-05-22T23:50:38.441Z,10.80
2019-05-22T23:53:05.139Z,10.80
2019-05-22T23:55:31.911Z,10.80
2019-05-22T23:57:58.884Z,10.70
